Time;durP1;ratioP1;P1;durP2;ratioP2;P2;SDS_P1;SDS_P2;PMS_P1;PMS_P2;Temp;Humidity;BMP_temperature;BMP_pressure;BME280_temperature;BME280_humidity;BME280_pressure;Samples;Min_cycle;Max_cycle;Signal;HPM_P1;HPM_P2
2024/04/01 00:00:40;;;;;;;4.97;2.63;;;12.70;99.90;;;;;;5031600;28;20117;-73
2024/04/01 00:03:06;;;;;;;2.83;2.50;;;12.60;99.90;;;;;;5031694;28;20029;-73
2024/04/01 00:05:32;;;;;;;4.63;2.35;;;12.50;99.90;;;;;;5029791;28;20055;-73
2024/04/01 00:07:59;;;;;;;4.30;1.70;;;12.60;99.90;;;;;;5028955;28;20375;-73
2024/04/01 00:10:25;;;;;;;4.53;1.20;;;12.60;99.90;;;;;;5031736;28;20056;-73
2024/04/01 00:12:53;;;;;;;4.03;1.48;;;12.50;99.90;;;;;;5032128;28;20029;-73
2024/04/01 00:15:19;;;;;;;1.40;1.30;;;12.50;99.90;;;;;;5031726;28;20020;-73
2024/04/01 00:17:45;;;;;;;2.85;1.55;;;12.50;99.90;;;;;;5032039;28;20026;-73
2024/04/01 00:20:11;;;;;;;4.05;1.38;;;12.50;99.90;;;;;;5030629;28;20022;-73
2024/04/01 00:22:37;;;;;;;3.17;1.88;;;12.50;99.90;;;;;;5031737;28;20025;-73
2024/04/01 00:25:04;;;;;;;2.97;1.70;;;12.50;99.90;;;;;;5031521;28;20398;-73
2024/04/01 00:27:30;;;;;;;2.17;1.63;;;12.50;99.90;;;;;;5031014;28;20026;-73
2024/04/01 00:29:55;;;;;;;2.42;1.30;;;12.50;99.90;;;;;;5031736;28;20040;-73
2024/04/01 00:32:21;;;;;;;2.92;1.50;;;12.50;99.90;;;;;;5031325;28;20037;-73
2024/04/01 00:34:47;;;;;;;1.45;1.25;;;12.50;99.90;;;;;;5031505;28;20474;-73
2024/04/01 00:37:13;;;;;;;2.08;1.30;;;12.40;99.90;;;;;;5031435;28;20075;-73
2024/04/01 00:39:39;;;;;;;1.75;1.52;;;12.40;99.90;;;;;;5021391;28;20022;-73
2024/04/01 00:42:04;;;;;;;1.40;1.17;;;12.40;99.90;;;;;;5031436;28;20025;-73
2024/04/01 00:44:31;;;;;;;3.65;1.50;;;12.40;99.90;;;;;;5031207;28;20494;-73
2024/04/01 00:46:57;;;;;;;3.78;2.17;;;12.40;99.90;;;;;;5036131;28;20029;-73
2024/04/01 00:49:24;;;;;;;2.80;1.10;;;12.40;99.90;;;;;;5031480;28;20067;-73
2024/04/01 00:51:52;;;;;;;3.28;1.70;;;12.40;99.90;;;;;;5030396;28;20026;-73
2024/04/01 00:54:18;;;;;;;2.42;1.60;;;12.30;99.90;;;;;;5031355;28;20021;-73
2024/04/01 00:56:46;;;;;;;2.90;1.50;;;12.40;99.90;;;;;;5028193;28;20528;-73
2024/04/01 00:59:18;;;;;;;2.55;1.35;;;12.30;99.90;;;;;;5021770;28;20025;-72
2024/04/01 01:01:47;;;;;;;2.45;1.40;;;12.30;99.90;;;;;;5031444;28;20021;-73
2024/04/01 01:04:14;;;;;;;3.75;1.70;;;12.20;99.90;;;;;;5031187;28;20065;-73
2024/04/01 01:06:42;;;;;;;7.65;1.40;;;12.20;99.90;;;;;;5031724;28;20017;-73
2024/04/01 01:09:08;;;;;;;4.95;1.48;;;12.20;99.90;;;;;;5028332;28;20033;-73
2024/04/01 01:11:34;;;;;;;3.95;1.65;;;12.20;99.90;;;;;;5030646;28;20021;-73
2024/04/01 01:14:01;;;;;;;4.13;1.50;;;12.20;99.90;;;;;;5031548;28;20453;-73
2024/04/01 01:16:27;;;;;;;6.07;1.42;;;12.20;99.90;;;;;;5031234;28;20026;-73
2024/04/01 01:18:53;;;;;;;2.92;1.20;;;12.10;99.90;;;;;;5031163;28;20030;-73
2024/04/01 01:21:19;;;;;;;3.85;1.35;;;12.10;99.90;;;;;;5031324;28;20044;-73
2024/04/01 01:23:44;;;;;;;6.88;1.45;;;12.10;99.90;;;;;;5030546;28;20382;-73
2024/04/01 01:26:10;;;;;;;3.67;1.67;;;12.20;99.90;;;;;;5031144;28;20029;-73
2024/04/01 01:28:36;;;;;;;1.95;1.40;;;12.10;99.90;;;;;;5031231;28;20041;-73
2024/04/01 01:31:02;;;;;;;4.13;1.50;;;12.00;99.90;;;;;;5030923;28;20063;-73
2024/04/01 01:33:29;;;;;;;4.47;1.45;;;12.00;99.90;;;;;;5030910;28;20061;-73
2024/04/01 01:35:55;;;;;;;5.03;1.60;;;12.00;99.90;;;;;;5031076;28;20014;-73
2024/04/01 01:38:21;;;;;;;1.75;1.55;;;12.00;99.90;;;;;;5024117;28;20073;-72
2024/04/01 01:40:47;;;;;;;2.97;1.48;;;12.00;99.90;;;;;;5028562;28;20025;-73
2024/04/01 01:43:13;;;;;;;2.00;1.40;;;12.00;99.90;;;;;;5034081;28;20056;-73
2024/04/01 01:45:38;;;;;;;1.90;1.70;;;12.00;99.90;;;;;;5034024;28;20029;-72
2024/04/01 01:48:05;;;;;;;1.83;1.45;;;12.00;99.90;;;;;;5039045;28;20040;-72
2024/04/01 01:50:30;;;;;;;2.47;1.73;;;11.90;99.90;;;;;;5034059;28;20026;-73
2024/04/01 01:52:56;;;;;;;2.65;1.67;;;12.00;99.90;;;;;;5034307;28;20382;-72
2024/04/01 01:55:22;;;;;;;1.73;1.63;;;11.90;99.90;;;;;;5034451;28;20030;-72
2024/04/01 01:57:48;;;;;;;2.75;1.70;;;11.90;99.90;;;;;;5034077;28;20052;-73
2024/04/01 02:00:14;;;;;;;2.88;1.52;;;12.00;99.90;;;;;;5034213;28;20026;-73
2024/04/01 02:02:40;;;;;;;5.45;1.85;;;11.90;99.90;;;;;;5034307;28;20025;-73
2024/04/01 02:05:06;;;;;;;5.28;2.10;;;11.90;99.90;;;;;;5033529;28;20025;-72
2024/04/01 02:07:33;;;;;;;3.28;1.70;;;11.80;99.90;;;;;;5033482;28;20079;-73
2024/04/01 02:09:58;;;;;;;3.75;1.88;;;11.80;99.90;;;;;;5031179;28;20013;-72
2024/04/01 02:12:24;;;;;;;4.32;1.65;;;11.80;99.90;;;;;;5034187;28;20533;-73
2024/04/01 02:14:50;;;;;;;2.83;2.08;;;11.80;99.90;;;;;;5032404;28;20525;-73
2024/04/01 02:17:15;;;;;;;2.58;2.22;;;11.80;99.90;;;;;;5027918;28;20032;-73
2024/04/01 02:19:47;;;;;;;2.95;1.67;;;11.80;99.90;;;;;;5009384;28;20064;-73
2024/04/01 02:22:14;;;;;;;5.93;2.15;;;11.80;99.90;;;;;;5026893;28;20025;-73
2024/04/01 02:24:41;;;;;;;2.40;2.20;;;11.80;99.90;;;;;;5026741;28;20119;-73
2024/04/01 02:27:07;;;;;;;3.75;2.03;;;11.70;99.90;;;;;;5025957;28;20538;-73
2024/04/01 02:29:33;;;;;;;2.80;2.17;;;11.80;99.90;;;;;;5025454;28;20029;-73
2024/04/01 02:31:58;;;;;;;2.00;1.90;;;11.80;99.90;;;;;;5027740;28;20105;-73
2024/04/01 02:34:24;;;;;;;2.83;2.10;;;11.80;99.90;;;;;;5027555;28;20032;-73
2024/04/01 02:36:50;;;;;;;2.58;1.80;;;11.80;99.90;;;;;;5027558;28;20017;-73
2024/04/01 02:39:18;;;;;;;4.10;1.63;;;11.90;99.90;;;;;;5026086;28;20037;-73
2024/04/01 02:41:48;;;;;;;3.28;1.95;;;11.80;99.90;;;;;;5026665;28;20136;-73
2024/04/01 02:44:14;;;;;;;4.45;1.92;;;11.90;99.90;;;;;;5026432;28;20120;-73
2024/04/01 02:46:41;;;;;;;4.05;1.52;;;11.90;99.90;;;;;;5027266;28;20140;-73
2024/04/01 02:49:07;;;;;;;2.42;1.80;;;11.90;99.90;;;;;;5026661;28;20025;-73
2024/04/01 02:51:34;;;;;;;2.42;2.22;;;11.80;99.90;;;;;;5026403;28;20466;-73
2024/04/01 02:53:59;;;;;;;3.35;1.75;;;11.80;99.90;;;;;;5025696;28;20057;-73
2024/04/01 02:56:25;;;;;;;1.90;1.80;;;11.90;99.90;;;;;;5026882;28;20430;-73
2024/04/01 02:58:52;;;;;;;3.13;2.08;;;11.90;99.90;;;;;;5026608;28;20029;-73
2024/04/01 03:01:18;;;;;;;1.98;1.70;;;11.90;99.90;;;;;;5027106;28;20014;-73
2024/04/01 03:03:45;;;;;;;2.35;1.42;;;11.90;99.90;;;;;;5026262;28;20236;-73
2024/04/01 03:06:12;;;;;;;3.22;1.60;;;11.90;99.90;;;;;;5026351;28;20104;-73
2024/04/01 03:08:40;;;;;;;2.03;1.63;;;11.70;99.90;;;;;;5026599;28;20064;-73
2024/04/01 03:11:06;;;;;;;1.85;1.75;;;11.70;99.90;;;;;;5025343;28;20421;-73
2024/04/01 03:13:32;;;;;;;2.28;1.80;;;11.70;99.90;;;;;;5026645;28;20017;-73
2024/04/01 03:15:58;;;;;;;3.55;2.17;;;11.80;99.90;;;;;;5026595;28;20029;-73
2024/04/01 03:18:26;;;;;;;3.78;1.90;;;11.80;99.90;;;;;;5025709;28;20378;-73
2024/04/01 03:20:53;;;;;;;2.40;2.20;;;11.70;99.90;;;;;;5025857;28;20021;-73
2024/04/01 03:23:19;;;;;;;3.10;1.98;;;11.70;99.90;;;;;;5025371;28;20035;-73
2024/04/01 03:25:52;;;;;;;3.45;1.70;;;11.80;99.90;;;;;;5025171;28;20030;-73
2024/04/01 03:28:18;;;;;;;2.33;1.85;;;11.80;99.90;;;;;;5026038;28;20014;-73
2024/04/01 03:30:45;;;;;;;3.50;2.20;;;11.80;99.90;;;;;;5025023;28;20033;-73
2024/04/01 03:33:12;;;;;;;4.10;2.40;;;11.80;99.90;;;;;;5025783;28;20370;-73
2024/04/01 03:35:41;;;;;;;3.55;2.58;;;11.80;99.90;;;;;;5026038;28;20021;-73
2024/04/01 03:38:08;;;;;;;5.15;2.80;;;11.80;99.90;;;;;;5025445;28;20037;-73
2024/04/01 03:40:41;;;;;;;4.32;2.00;;;11.80;99.90;;;;;;5025166;28;20079;-73
2024/04/01 03:43:07;;;;;;;;;;;11.70;99.90;;;;;;5026089;28;20022;-73
2024/04/01 03:45:33;;;;;;;3.17;1.77;;;11.70;99.90;;;;;;5024703;28;19917;-73
2024/04/01 03:47:59;;;;;;;2.10;2.00;;;11.70;99.90;;;;;;5025224;28;20029;-73
2024/04/01 03:50:25;;;;;;;2.95;1.52;;;11.60;99.90;;;;;;5025248;28;20414;-73
2024/04/01 03:52:52;;;;;;;3.40;1.70;;;11.70;99.90;;;;;;5026582;28;20493;-73
2024/04/01 03:55:18;;;;;;;2.38;1.58;;;11.70;99.90;;;;;;5024797;28;20013;-73
2024/04/01 03:57:43;;;;;;;2.15;1.60;;;11.70;99.90;;;;;;5025659;28;20521;-73
2024/04/01 04:00:10;;;;;;;1.58;1.20;;;11.60;99.90;;;;;;5025344;28;20112;-73
2024/04/01 04:02:35;;;;;;;2.95;1.70;;;11.60;99.90;;;;;;5025732;28;20026;-73
2024/04/01 04:05:01;;;;;;;4.05;1.70;;;11.50;99.90;;;;;;5024666;28;20049;-73
2024/04/01 04:07:27;;;;;;;2.42;1.88;;;11.40;99.90;;;;;;5025751;28;20028;-73
2024/04/01 04:09:52;;;;;;;3.10;1.50;;;11.40;99.90;;;;;;5024676;28;20037;-73
2024/04/01 04:12:18;;;;;;;2.53;1.90;;;11.40;99.90;;;;;;5025763;28;20074;-73
2024/04/01 04:14:44;;;;;;;5.72;2.38;;;11.40;99.90;;;;;;5025711;28;20367;-73
2024/04/01 04:17:09;;;;;;;2.92;2.60;;;11.40;99.90;;;;;;5025372;28;20516;-73
2024/04/01 04:19:35;;;;;;;4.20;2.58;;;11.50;99.90;;;;;;5025331;28;20470;-73
2024/04/01 04:22:01;;;;;;;4.28;2.45;;;11.40;99.90;;;;;;5024678;28;20021;-73
2024/04/01 04:24:27;;;;;;;3.95;2.50;;;11.40;99.90;;;;;;5024905;28;20522;-73
2024/04/01 04:26:52;;;;;;;2.60;2.28;;;11.50;99.90;;;;;;5025115;28;20078;-73
2024/04/01 04:29:18;;;;;;;3.03;2.22;;;11.40;99.90;;;;;;5025028;28;20493;-73
2024/04/01 04:31:54;;;;;;;2.33;2.05;;;11.50;99.90;;;;;;5025157;28;20021;-73
2024/04/01 04:34:21;;;;;;;2.67;1.77;;;11.40;99.90;;;;;;5024964;28;20029;-73
2024/04/01 04:36:47;;;;;;;2.63;1.88;;;11.40;99.90;;;;;;5024621;28;20049;-73
2024/04/01 04:39:25;;;;;;;3.13;1.77;;;11.50;99.90;;;;;;5025012;28;20158;-73
2024/04/01 04:41:51;;;;;;;4.75;2.15;;;11.40;99.90;;;;;;5024904;28;20486;-73
2024/04/01 04:44:17;;;;;;;3.08;2.75;;;11.50;99.90;;;;;;5024595;28;20531;-73
2024/04/01 04:46:43;;;;;;;2.33;1.88;;;11.40;99.90;;;;;;5025277;28;20128;-73
2024/04/01 04:49:09;;;;;;;1.70;1.60;;;11.40;99.90;;;;;;5025120;28;20466;-73
2024/04/01 04:51:34;;;;;;;3.70;2.10;;;11.40;99.90;;;;;;5025126;28;20034;-73
2024/04/01 04:54:00;;;;;;;6.00;2.55;;;11.40;99.90;;;;;;5024965;28;20029;-73
2024/04/01 04:56:27;;;;;;;2.38;2.17;;;11.40;99.90;;;;;;5024501;28;20036;-73
2024/04/01 04:58:53;;;;;;;3.08;2.80;;;11.40;99.90;;;;;;5024912;28;20025;-73
2024/04/01 05:01:22;;;;;;;4.95;3.75;;;11.40;99.90;;;;;;5023732;28;20030;-73
2024/04/01 05:03:48;;;;;;;4.05;3.55;;;11.50;99.90;;;;;;5025601;28;20075;-73
2024/04/01 05:06:14;;;;;;;4.35;3.35;;;11.40;99.90;;;;;;5024505;28;20055;-73
2024/04/01 05:08:40;;;;;;;4.95;3.70;;;11.40;99.90;;;;;;5024956;28;20124;-73
2024/04/01 05:11:08;;;;;;;3.40;3.10;;;11.40;99.90;;;;;;5024598;28;20574;-73
2024/04/01 05:13:35;;;;;;;3.55;3.22;;;11.40;99.90;;;;;;5025426;28;20146;-73
2024/04/01 05:16:03;;;;;;;4.72;3.80;;;11.40;99.90;;;;;;5024350;28;20018;-73
2024/04/01 05:18:29;;;;;;;4.57;4.18;;;11.50;99.90;;;;;;5028457;28;20036;-74
2024/04/01 05:20:55;;;;;;;4.05;3.65;;;11.50;99.90;;;;;;5028331;28;20060;-73
2024/04/01 05:23:21;;;;;;;6.10;4.78;;;11.50;99.90;;;;;;5028458;28;20494;-73
2024/04/01 05:25:46;;;;;;;7.07;5.38;;;11.50;99.90;;;;;;5029006;28;20039;-73
2024/04/01 05:28:12;;;;;;;5.35;4.55;;;11.50;99.90;;;;;;5029067;28;20067;-73
2024/04/01 05:30:38;;;;;;;3.28;3.03;;;11.60;99.90;;;;;;5027429;28;20041;-73
2024/04/01 05:33:04;;;;;;;4.10;3.70;;;11.60;99.90;;;;;;5026959;28;20029;-73
2024/04/01 05:35:33;;;;;;;3.72;3.30;;;11.60;99.90;;;;;;5028842;28;20034;-73
2024/04/01 05:37:59;;;;;;;6.15;3.65;;;11.60;99.90;;;;;;5027439;28;20075;-73
2024/04/01 05:40:26;;;;;;;6.47;3.70;;;11.60;99.90;;;;;;5027476;28;20041;-73
2024/04/01 05:42:53;;;;;;;3.45;2.70;;;11.60;99.90;;;;;;5028421;28;20064;-73
2024/04/01 05:45:19;;;;;;;6.82;3.00;;;11.60;99.90;;;;;;5026513;28;20037;-73
2024/04/01 05:47:45;;;;;;;3.85;2.40;;;11.60;99.90;;;;;;5043328;28;20453;-73
2024/04/01 05:50:10;;;;;;;4.72;2.50;;;11.70;99.90;;;;;;5034417;28;20504;-73
2024/04/01 05:52:36;;;;;;;4.65;1.73;;;11.60;99.90;;;;;;5034145;28;20025;-73
2024/04/01 05:55:02;;;;;;;5.93;2.22;;;11.60;99.90;;;;;;5034919;28;20037;-73
2024/04/01 05:57:29;;;;;;;1.92;1.83;;;11.60;99.90;;;;;;5034126;28;20045;-73
2024/04/01 05:59:58;;;;;;;2.95;1.67;;;11.60;99.90;;;;;;5034153;28;20033;-73
2024/04/01 06:02:24;;;;;;;2.95;1.63;;;11.70;99.90;;;;;;5034911;28;20071;-73
2024/04/01 06:04:50;;;;;;;3.72;1.65;;;11.70;99.90;;;;;;5033976;28;20616;-73
2024/04/01 06:07:15;;;;;;;5.10;2.08;;;11.70;99.90;;;;;;5034448;28;20018;-73
2024/04/01 06:09:41;;;;;;;2.20;1.95;;;11.70;99.90;;;;;;5033969;28;20029;-73
2024/04/01 06:12:07;;;;;;;3.47;1.85;;;11.70;99.90;;;;;;5034579;28;20440;-73
2024/04/01 06:14:33;;;;;;;2.65;1.42;;;11.70;99.90;;;;;;5034424;28;20033;-73
2024/04/01 06:16:59;;;;;;;2.00;1.45;;;11.70;99.90;;;;;;5033765;28;20029;-73
2024/04/01 06:19:24;;;;;;;1.95;1.75;;;11.70;99.90;;;;;;5033735;28;20030;-73
2024/04/01 06:21:50;;;;;;;3.72;1.88;;;11.80;99.90;;;;;;5034099;28;20041;-73
2024/04/01 06:24:16;;;;;;;2.22;2.00;;;11.80;99.90;;;;;;5033721;28;20037;-74
2024/04/01 06:26:43;;;;;;;2.70;2.50;;;11.80;99.90;;;;;;5034395;28;20038;-73
2024/04/01 06:29:08;;;;;;;2.83;2.63;;;11.80;99.90;;;;;;5033767;28;20486;-74
2024/04/01 06:31:34;;;;;;;6.18;2.63;;;11.80;99.90;;;;;;5033545;28;20028;-73
2024/04/01 06:34:00;;;;;;;3.80;2.80;;;11.80;99.90;;;;;;5033153;28;20029;-74
2024/04/01 06:36:26;;;;;;;5.93;3.35;;;11.70;99.90;;;;;;5031845;28;20026;-74
2024/04/01 06:38:51;;;;;;;5.30;3.38;;;11.70;99.90;;;;;;5033767;28;20097;-74
2024/04/01 06:41:17;;;;;;;4.63;3.13;;;11.70;99.90;;;;;;5033829;28;20459;-74
2024/04/01 06:43:43;;;;;;;4.63;3.13;;;11.70;99.90;;;;;;5033576;28;20037;-74
2024/04/01 06:46:09;;;;;;;5.25;3.08;;;11.60;99.90;;;;;;5033628;28;20368;-74
2024/04/01 06:48:34;;;;;;;5.68;3.83;;;11.60;99.90;;;;;;5038262;28;20025;-74
2024/04/01 06:51:00;;;;;;;7.25;4.20;;;11.50;99.90;;;;;;5033547;28;20108;-74
2024/04/01 06:53:26;;;;;;;7.63;4.18;;;11.50;99.90;;;;;;5033482;28;20029;-74
2024/04/01 06:55:52;;;;;;;5.68;3.40;;;11.50;99.90;;;;;;5033705;28;20021;-74
2024/04/01 06:58:18;;;;;;;4.50;3.53;;;11.50;99.90;;;;;;5033468;28;20108;-74
2024/04/01 07:00:44;;;;;;;5.10;4.15;;;11.50;99.90;;;;;;5032135;28;20112;-73
2024/04/01 07:03:10;;;;;;;4.50;4.10;;;11.50;99.90;;;;;;5031613;28;20060;-74
2024/04/01 07:05:36;;;;;;;3.92;3.53;;;11.50;99.90;;;;;;5031102;28;20044;-73
2024/04/01 07:08:02;;;;;;;4.82;4.22;;;11.50;99.90;;;;;;5033411;28;20058;-73
2024/04/01 07:10:29;;;;;;;5.45;4.28;;;11.60;99.90;;;;;;5032056;28;20479;-74
2024/04/01 07:12:56;;;;;;;4.80;4.03;;;11.50;99.90;;;;;;5028721;28;20018;-75
2024/04/01 07:15:22;;;;;;;5.50;4.35;;;11.50;99.90;;;;;;5024466;28;20367;-74
2024/04/01 07:17:48;;;;;;;5.47;4.03;;;11.60;99.90;;;;;;5032816;28;20112;-74
2024/04/01 07:20:14;;;;;;;7.38;4.60;;;11.60;99.90;;;;;;5030296;28;20496;-74
2024/04/01 07:22:40;;;;;;;7.90;4.57;;;11.60;99.90;;;;;;5028093;28;20519;-74
2024/04/01 07:25:06;;;;;;;6.90;4.40;;;11.60;99.90;;;;;;5032895;28;20060;-74
2024/04/01 07:27:35;;;;;;;8.60;4.97;;;11.50;99.90;;;;;;5030094;28;20033;-74
2024/04/01 07:30:02;;;;;;;6.97;5.78;;;11.50;99.90;;;;;;5026990;28;20108;-74
2024/04/01 07:32:29;;;;;;;6.72;5.25;;;11.40;99.90;;;;;;5027483;28;20025;-74
2024/04/01 07:34:56;;;;;;;10.48;5.22;;;11.50;99.90;;;;;;5023213;28;20025;-74
2024/04/01 07:37:22;;;;;;;9.18;5.75;;;11.50;99.90;;;;;;5022456;28;20030;-74
2024/04/01 07:39:48;;;;;;;6.82;5.63;;;11.50;99.90;;;;;;5023341;28;20039;-74
2024/04/01 07:42:14;;;;;;;8.77;5.75;;;11.50;99.90;;;;;;5025326;28;20021;-74
2024/04/01 07:44:40;;;;;;;9.13;5.72;;;11.60;99.90;;;;;;5029203;28;20512;-74
2024/04/01 07:47:06;;;;;;;6.53;5.63;;;11.60;99.90;;;;;;5037258;28;20026;-74
2024/04/01 07:49:33;;;;;;;7.78;6.05;;;11.70;99.90;;;;;;5029743;28;20021;-74
2024/04/01 07:51:59;;;;;;;6.75;5.47;;;11.70;99.90;;;;;;5032174;28;20036;-73
2024/04/01 07:54:26;;;;;;;9.15;5.32;;;11.70;99.90;;;;;;5030808;28;20037;-74
2024/04/01 07:56:52;;;;;;;7.97;4.97;;;11.80;99.90;;;;;;5030534;28;20045;-74
2024/04/01 07:59:18;;;;;;;6.00;4.55;;;11.80;99.90;;;;;;5031231;28;20068;-74
2024/04/01 08:01:43;;;;;;;5.85;4.40;;;11.80;99.90;;;;;;5028329;28;20030;-74
2024/04/01 08:04:09;;;;;;;6.80;4.28;;;11.80;99.90;;;;;;5021767;28;20063;-74
2024/04/01 08:07:09;;;;;;;6.70;4.47;;;11.70;99.90;;;;;;5030660;28;20140;-75
2024/04/01 08:09:34;;;;;;;4.38;3.97;;;11.80;99.90;;;;;;5031937;28;20060;-73
2024/04/01 08:12:00;;;;;;;6.05;4.20;;;11.70;99.90;;;;;;5026756;28;20046;-74
2024/04/01 08:14:26;;;;;;;5.80;3.95;;;11.80;99.90;;;;;;5026165;28;20511;-75
2024/04/01 08:16:51;;;;;;;7.35;4.38;;;12.00;99.90;;;;;;5030349;28;20374;-75
2024/04/01 08:19:17;;;;;;;5.65;3.92;;;12.00;99.90;;;;;;5030160;28;20034;-75
2024/04/01 08:21:43;;;;;;;4.80;4.40;;;12.00;99.90;;;;;;5030807;28;20382;-76
2024/04/01 08:24:09;;;;;;;4.97;4.05;;;12.00;99.90;;;;;;5030063;28;20112;-77
2024/04/01 08:26:34;;;;;;;4.10;3.80;;;11.90;99.90;;;;;;5030156;28;20713;-76
2024/04/01 08:29:00;;;;;;;5.35;3.63;;;12.00;99.90;;;;;;5022144;28;20107;-76
2024/04/01 08:31:26;;;;;;;4.75;3.83;;;12.00;99.90;;;;;;5029473;28;20033;-77
2024/04/01 08:33:52;;;;;;;5.47;3.90;;;12.00;99.90;;;;;;5030057;28;20032;-76
2024/04/01 08:36:17;;;;;;;6.20;4.20;;;12.00;99.90;;;;;;5031249;28;20025;-77
2024/04/01 08:38:44;;;;;;;5.88;4.75;;;11.80;99.90;;;;;;5031357;28;20108;-77
2024/04/01 08:41:24;;;;;;;8.10;5.28;;;11.90;99.90;;;;;;5031308;28;20053;-76
2024/04/01 08:44:02;;;;;;;7.65;4.55;;;11.80;99.90;;;;;;5030000;28;20060;-75
2024/04/01 08:46:31;;;;;;;6.93;5.28;;;11.80;99.90;;;;;;5032895;28;20434;-77
2024/04/01 08:49:00;;;;;;;7.65;4.95;;;11.80;99.90;;;;;;5025349;28;20075;-78
2024/04/01 08:51:27;;;;;;;10.40;4.32;;;11.70;99.90;;;;;;5031132;28;20470;-78
2024/04/01 08:54:02;;;;;;;4.85;4.45;;;11.80;99.90;;;;;;5034442;28;20061;-77
2024/04/01 08:56:32;;;;;;;11.25;4.55;;;11.80;99.90;;;;;;5034498;28;20430;-77
2024/04/01 08:58:59;;;;;;;5.85;4.10;;;11.80;99.90;;;;;;5029852;28;20502;-75
2024/04/01 09:01:25;;;;;;;4.85;4.18;;;11.80;99.90;;;;;;5035070;28;20029;-75
2024/04/01 09:03:52;;;;;;;6.47;3.60;;;11.80;99.90;;;;;;5034738;28;20037;-75
2024/04/01 09:06:21;;;;;;;6.70;4.45;;;11.80;99.90;;;;;;5034343;28;20410;-76
2024/04/01 09:08:50;;;;;;;7.00;3.85;;;11.80;99.90;;;;;;5032738;28;20018;-77
2024/04/01 09:11:16;;;;;;;5.25;3.70;;;11.80;99.90;;;;;;5034228;28;20025;-78
2024/04/01 09:13:41;;;;;;;6.90;3.50;;;12.00;99.90;;;;;;5035172;28;20029;-77
2024/04/01 09:16:08;;;;;;;5.35;3.58;;;11.90;99.90;;;;;;5034368;28;20029;-77
2024/04/01 09:18:37;;;;;;;5.55;3.78;;;11.80;99.90;;;;;;5033771;28;20025;-77
2024/04/01 09:21:06;;;;;;;5.75;4.03;;;11.90;99.90;;;;;;5034634;28;20033;-76
2024/04/01 09:23:33;;;;;;;4.65;3.60;;;11.90;99.90;;;;;;5034861;28;20045;-75
2024/04/01 09:25:59;;;;;;;5.03;3.08;;;11.90;99.90;;;;;;5032696;28;20079;-75
2024/04/01 09:28:26;;;;;;;5.95;2.88;;;11.90;99.90;;;;;;5026919;28;20356;-76
2024/04/01 09:30:52;;;;;;;4.45;3.30;;;11.90;99.90;;;;;;5032462;28;20386;-76
2024/04/01 09:33:18;;;;;;;7.63;3.25;;;11.90;99.90;;;;;;5033644;28;20021;-77
2024/04/01 09:35:44;;;;;;;7.32;3.30;;;11.90;99.90;;;;;;5034807;28;20022;-77
2024/04/01 09:38:10;;;;;;;6.88;3.58;;;11.90;99.90;;;;;;5033027;28;20040;-77
2024/04/01 09:40:36;;;;;;;8.95;3.85;;;11.90;99.90;;;;;;5034012;28;20029;-76
2024/04/01 09:43:02;;;;;;;6.85;3.58;;;12.00;99.90;;;;;;5034760;28;20037;-78
2024/04/01 09:45:29;;;;;;;9.65;3.33;;;12.00;99.90;;;;;;5033288;28;20116;-75
2024/04/01 09:47:55;;;;;;;10.63;4.50;;;12.00;99.90;;;;;;5032746;28;20275;-78
2024/04/01 09:50:21;;;;;;;6.95;3.25;;;12.00;99.90;;;;;;5034018;28;20097;-76
2024/04/01 09:52:47;;;;;;;7.43;3.38;;;12.10;99.90;;;;;;5033158;28;20108;-78
2024/04/01 09:55:21;;;;;;;6.05;2.72;;;12.10;99.90;;;;;;5034838;28;20482;-76
2024/04/01 09:58:18;;;;;;;7.60;3.30;;;12.20;99.90;;;;;;5032786;28;20490;-79
2024/04/01 10:01:25;;;;;;;8.98;3.30;;;12.20;99.90;;;;;;5033629;28;20473;-80
2024/04/01 10:04:31;;;;;;;7.65;3.63;;;12.20;99.90;;;;;;5034052;28;20120;-76
2024/04/01 10:07:32;;;;;;;8.57;3.40;;;12.30;99.90;;;;;;5032840;28;20017;-77
2024/04/01 10:10:08;;;;;;;4.93;3.28;;;12.40;99.90;;;;;;5033803;28;20017;-76
2024/04/01 10:12:53;;;;;;;8.20;3.33;;;12.50;99.90;;;;;;5033524;28;20060;-76
2024/04/01 10:16:05;;;;;;;7.03;3.55;;;12.50;99.90;;;;;;5032846;28;20022;-77
2024/04/01 10:18:51;;;;;;;7.75;3.30;;;12.50;99.90;;;;;;5017540;28;20026;-77
2024/04/01 10:21:28;;;;;;;3.75;3.15;;;12.60;99.90;;;;;;5030510;28;20022;-77
2024/04/01 10:24:15;;;;;;;7.47;3.63;;;12.70;99.90;;;;;;5033613;28;20060;-76
2024/04/01 10:27:08;;;;;;;6.20;3.85;;;12.70;99.90;;;;;;5031938;28;20040;-77
2024/04/01 10:29:59;;;;;;;10.32;3.78;;;12.70;99.90;;;;;;5033010;28;20022;-77
2024/04/01 10:32:53;;;;;;;7.60;3.38;;;12.80;99.90;;;;;;5029140;28;20017;-77
2024/04/01 10:35:43;;;;;;;5.07;3.50;;;12.80;99.90;;;;;;5033137;28;20100;-77
2024/04/01 10:38:27;;;;;;;4.30;2.70;;;12.80;99.90;;;;;;5032387;28;20037;-78
2024/04/01 10:41:25;;;;;;;5.82;2.90;;;12.90;99.90;;;;;;5033653;28;20030;-75
2024/04/01 10:44:05;;;;;;;6.05;2.75;;;13.00;99.90;;;;;;5029720;28;20100;-77
2024/04/01 10:46:34;;;;;;;6.22;2.97;;;13.10;99.90;;;;;;5023972;28;20467;-76
2024/04/01 10:49:33;;;;;;;7.45;2.38;;;13.20;99.90;;;;;;5032694;28;20026;-77
2024/04/01 10:52:05;;;;;;;5.00;2.72;;;13.30;99.90;;;;;;5027858;28;20044;-78
2024/04/01 10:55:00;;;;;;;6.18;2.35;;;13.30;99.90;;;;;;5029793;28;20017;-76
2024/04/01 10:57:53;;;;;;;5.72;2.22;;;13.30;99.90;;;;;;5022407;28;20395;-76
2024/04/01 11:00:30;;;;;;;5.25;2.22;;;13.40;99.90;;;;;;5033586;28;20025;-76
2024/04/01 11:03:33;;;;;;;5.20;2.10;;;13.50;99.90;;;;;;5015706;28;20022;-77
2024/04/01 11:06:24;;;;;;;3.80;1.73;;;13.40;99.90;;;;;;5024602;28;20505;-78
2024/04/01 11:09:12;;;;;;;3.88;1.65;;;13.60;99.90;;;;;;5030312;28;20143;-76
2024/04/01 11:12:01;;;;;;;3.40;1.60;;;13.50;99.90;;;;;;5029537;28;20045;-77
2024/04/01 11:14:28;;;;;;;5.50;1.70;;;13.60;99.90;;;;;;5032559;28;20518;-77
2024/04/01 11:16:57;;;;;;;6.05;1.42;;;13.50;99.90;;;;;;5032303;28;20087;-77
2024/04/01 11:19:30;;;;;;;2.33;1.70;;;13.60;99.90;;;;;;5031694;28;20109;-77
2024/04/01 11:22:04;;;;;;;3.53;1.88;;;13.60;99.90;;;;;;5032106;28;20433;-77
2024/04/01 11:24:33;;;;;;;2.97;1.63;;;13.80;99.90;;;;;;5031720;28;20039;-77
2024/04/01 11:27:17;;;;;;;2.85;1.33;;;13.80;99.90;;;;;;5032641;28;20104;-78
2024/04/01 11:30:12;;;;;;;5.05;1.80;;;13.80;99.90;;;;;;5032313;28;20025;-78
2024/04/01 11:32:41;;;;;;;2.50;1.55;;;13.90;99.90;;;;;;5032673;28;20025;-78
2024/04/01 11:35:32;;;;;;;4.80;1.73;;;14.00;99.90;;;;;;5031664;28;20014;-77
2024/04/01 11:38:22;;;;;;;4.80;1.58;;;14.00;99.90;;;;;;5019310;28;20022;-77
2024/04/01 11:40:50;;;;;;;4.05;1.55;;;14.20;99.90;;;;;;5030768;28;20018;-76
2024/04/01 11:43:18;;;;;;;4.07;1.67;;;14.40;99.90;;;;;;5031308;28;20474;-76
2024/04/01 11:45:47;;;;;;;3.30;1.35;;;14.30;99.90;;;;;;5030830;28;20068;-76
2024/04/01 11:48:14;;;;;;;5.03;1.75;;;14.30;99.90;;;;;;5038968;28;20056;-78
2024/04/01 11:50:51;;;;;;;2.10;1.60;;;14.40;99.90;;;;;;5032372;28;20420;-79
2024/04/01 11:53:17;;;;;;;2.55;1.40;;;14.30;99.90;;;;;;5027602;28;20022;-78
2024/04/01 11:56:00;;;;;;;3.33;1.00;;;14.40;99.90;;;;;;5013479;28;20029;-78
2024/04/01 11:58:26;;;;;;;2.92;1.27;;;14.40;99.90;;;;;;5019422;28;20088;-78
2024/04/01 12:00:57;;;;;;;2.20;1.45;;;14.50;99.90;;;;;;5031703;28;20043;-78
2024/04/01 12:03:24;;;;;;;3.53;1.30;;;14.50;99.90;;;;;;5031919;28;20092;-78
2024/04/01 12:05:52;;;;;;;3.35;1.23;;;14.50;99.90;;;;;;5031107;28;20017;-77
2024/04/01 12:08:25;;;;;;;3.75;1.30;;;14.50;99.90;;;;;;5031645;28;20516;-78
2024/04/01 12:10:52;;;;;;;1.80;1.00;;;14.50;99.90;;;;;;5030618;28;20508;-78
2024/04/01 12:13:26;;;;;;;1.67;1.00;;;14.50;99.90;;;;;;5023993;28;21251;-77
2024/04/01 12:15:54;;;;;;;2.08;1.48;;;14.50;99.90;;;;;;5011161;28;20079;-78
2024/04/01 12:18:20;;;;;;;2.90;1.25;;;14.50;99.90;;;;;;5022076;28;20075;-79
2024/04/01 12:20:54;;;;;;;3.63;1.40;;;14.50;99.90;;;;;;5024052;28;20116;-79
2024/04/01 12:23:25;;;;;;;2.15;0.93;;;14.50;99.90;;;;;;5024246;28;20029;-77
2024/04/01 12:25:51;;;;;;;2.25;1.20;;;14.40;99.90;;;;;;5023812;28;20108;-78
2024/04/01 12:28:18;;;;;;;2.83;1.20;;;14.40;99.90;;;;;;5023852;28;20037;-79
2024/04/01 12:30:49;;;;;;;5.60;1.45;;;14.40;99.90;;;;;;5023216;28;20482;-80
2024/04/01 12:33:16;;;;;;;2.72;1.00;;;14.50;99.90;;;;;;5023254;28;20022;-79
2024/04/01 12:35:41;;;;;;;2.35;1.05;;;14.50;99.90;;;;;;5022789;28;20108;-79
2024/04/01 12:38:13;;;;;;;1.58;1.15;;;14.50;99.90;;;;;;5020887;28;20128;-78
2024/04/01 12:40:45;;;;;;;1.83;1.15;;;14.60;99.90;;;;;;5023641;28;20021;-79
2024/04/01 12:43:21;;;;;;;3.00;1.00;;;14.60;99.90;;;;;;5023067;28;20095;-80
2024/04/01 12:45:51;;;;;;;4.60;1.10;;;14.40;99.90;;;;;;5021347;28;20041;-78
2024/04/01 12:48:18;;;;;;;1.48;0.90;;;14.50;99.90;;;;;;5023918;28;20553;-79
2024/04/01 12:50:52;;;;;;;2.50;1.20;;;14.60;99.90;;;;;;5023409;28;20051;-78
2024/04/01 12:53:39;;;;;;;2.72;1.40;;;14.60;99.90;;;;;;5023717;28;20017;-79
2024/04/01 12:56:32;;;;;;;2.63;1.38;;;14.60;99.90;;;;;;5024126;28;20053;-80
2024/04/01 12:59:03;;;;;;;1.70;1.35;;;14.50;99.90;;;;;;5021879;28;20437;-80